createdAt,value
2022-10-26T00:01:48.940Z,10.62
2022-10-26T00:07:14.156Z,10.60
2022-10-26T00:12:18.067Z,10.57
2022-10-26T00:17:26.002Z,10.44
2022-10-26T00:22:41.976Z,10.42
2022-10-26T00:28:00.258Z,10.36
2022-10-26T00:33:16.330Z,10.37
2022-10-26T00:38:29.349Z,10.28
2022-10-26T00:43:50.799Z,10.23
2022-10-26T00:49:08.773Z,10.19
2022-10-26T00:54:25.088Z,10.25
2022-10-26T00:59:33.659Z,10.26
2022-10-26T01:04:39.496Z,10.25
2022-10-26T01:09:43.011Z,10.25
2022-10-26T01:14:45.911Z,10.23
2022-10-26T01:20:18.231Z,10.24
2022-10-26T01:25:42.471Z,10.21
2022-10-26T01:30:48.755Z,10.22
2022-10-26T01:35:58.780Z,10.16
2022-10-26T01:41:07.303Z,10.20
2022-10-26T01:46:12.711Z,10.12
2022-10-26T01:51:16.347Z,10.19
2022-10-26T01:56:22.301Z,10.05
2022-10-26T02:02:11.116Z,10.03
2022-10-26T02:07:22.962Z,9.92
2022-10-26T02:12:34.835Z,9.95
2022-10-26T02:17:48.668Z,9.92
2022-10-26T02:22:53.844Z,9.80
2022-10-26T02:28:00.223Z,9.77
2022-10-26T02:33:06.608Z,9.77
2022-10-26T02:38:11.919Z,9.75
2022-10-26T02:43:20.735Z,9.76
2022-10-26T02:48:25.354Z,9.77
2022-10-26T02:53:32.165Z,9.73
2022-10-26T02:58:41.318Z,9.64
2022-10-26T03:03:45.912Z,9.59
2022-10-26T03:08:48.844Z,9.66
2022-10-26T03:13:51.657Z,9.64
2022-10-26T03:18:55.802Z,9.53
2022-10-26T03:23:58.686Z,9.49
2022-10-26T03:29:01.603Z,9.43
2022-10-26T03:34:05.747Z,9.41
2022-10-26T03:39:08.521Z,9.43
2022-10-26T03:44:11.356Z,9.43
2022-10-26T03:49:15.552Z,9.53
2022-10-26T03:54:18.514Z,9.49
2022-10-26T03:59:21.334Z,9.42
2022-10-26T04:04:25.578Z,9.53
2022-10-26T04:09:28.497Z,9.66
2022-10-26T04:14:31.252Z,9.52
2022-10-26T04:19:35.428Z,9.53
2022-10-26T04:24:38.191Z,9.45
2022-10-26T04:29:41.139Z,9.55
2022-10-26T04:34:45.274Z,9.41
2022-10-26T04:39:48.078Z,9.38
2022-10-26T04:44:50.820Z,9.38
2022-10-26T04:49:54.949Z,9.32
2022-10-26T04:54:57.770Z,9.27
2022-10-26T05:00:01.268Z,9.26
2022-10-26T05:05:07.911Z,9.38
2022-10-26T05:10:13.314Z,9.40
2022-10-26T05:15:16.382Z,9.23
2022-10-26T05:20:20.637Z,9.36
2022-10-26T05:25:23.597Z,9.31
2022-10-26T05:30:26.487Z,9.22
2022-10-26T05:35:30.813Z,9.16
2022-10-26T05:40:33.562Z,9.06
2022-10-26T05:45:36.299Z,9.12
2022-10-26T05:50:40.470Z,9.28
2022-10-26T05:55:44.411Z,9.19
2022-10-26T06:01:07.813Z,9.16
2022-10-26T06:06:14.059Z,9.21
2022-10-26T06:11:17.321Z,9.26
2022-10-26T06:16:30.262Z,9.32
2022-10-26T06:21:48.187Z,9.22
2022-10-26T06:26:58.912Z,9.25
2022-10-26T06:32:02.720Z,9.33
2022-10-26T06:37:08.694Z,9.36
2022-10-26T06:42:12.347Z,9.39
2022-10-26T06:47:23.446Z,9.38
2022-10-26T06:52:35.089Z,9.65
2022-10-26T06:57:40.445Z,9.54
2022-10-26T07:02:43.484Z,9.61
2022-10-26T07:07:49.108Z,9.74
2022-10-26T07:12:52.142Z,9.76
2022-10-26T07:17:54.886Z,9.77
2022-10-26T07:22:59.445Z,9.76
2022-10-26T07:28:02.875Z,9.81
2022-10-26T07:33:08.470Z,9.87
2022-10-26T07:38:14.896Z,10.02
2022-10-26T07:43:17.626Z,10.10
2022-10-26T07:48:20.406Z,10.19
2022-10-26T07:53:27.847Z,10.27
2022-10-26T07:58:30.929Z,10.41
2022-10-26T08:03:33.689Z,10.42
2022-10-26T08:08:38.582Z,10.35
2022-10-26T08:13:41.870Z,10.69
2022-10-26T08:18:44.716Z,10.78
2022-10-26T08:23:48.822Z,10.87
2022-10-26T08:28:52.344Z,11.01
2022-10-26T08:33:55.163Z,11.20
2022-10-26T08:44:11.651Z,11.34
2022-10-26T08:49:24.283Z,11.46
2022-10-26T08:54:36.704Z,11.53
2022-10-26T08:59:44.483Z,11.53
2022-10-26T09:04:47.439Z,11.49
2022-10-26T09:10:01.039Z,11.61
2022-10-26T09:15:15.211Z,11.76
2022-10-26T09:20:46.151Z,11.74
2022-10-26T09:25:59.552Z,11.82
2022-10-26T09:31:03.810Z,11.91
2022-10-26T09:36:13.234Z,12.01
2022-10-26T09:41:29.581Z,12.05
2022-10-26T09:46:45.951Z,12.24
2022-10-26T09:51:49.859Z,12.29
2022-10-26T09:57:00.250Z,12.40
2022-10-26T10:02:33.094Z,12.58
2022-10-26T10:07:39.973Z,12.71
2022-10-26T10:12:44.704Z,12.90
2022-10-26T10:17:53.317Z,13.14
2022-10-26T10:23:01.081Z,13.25
2022-10-26T10:28:22.483Z,13.44
2022-10-26T10:33:34.579Z,13.63
2022-10-26T10:38:42.580Z,13.83
2022-10-26T10:43:50.530Z,13.96
2022-10-26T10:48:57.155Z,14.05
2022-10-26T10:53:59.974Z,14.14
2022-10-26T10:59:28.401Z,14.31
2022-10-26T11:04:49.239Z,14.37
2022-10-26T11:15:08.475Z,14.62
2022-10-26T11:20:16.945Z,14.71
2022-10-26T11:25:26.471Z,14.86
2022-10-26T11:30:32.186Z,15.01
2022-10-26T11:35:43.475Z,15.03
2022-10-26T11:40:54.716Z,15.22
2022-10-26T11:46:06.214Z,15.45
2022-10-26T11:51:15.211Z,15.55
2022-10-26T11:56:26.231Z,15.60
2022-10-26T12:01:31.625Z,15.51
2022-10-26T12:06:36.256Z,15.60
2022-10-26T12:11:47.348Z,15.67
2022-10-26T12:17:01.122Z,15.71
2022-10-26T12:29:10.845Z,15.98
2022-10-26T12:34:23.138Z,16.15
2022-10-26T12:39:29.501Z,16.33
2022-10-26T12:44:35.049Z,16.41
2022-10-26T12:50:19.685Z,16.51
2022-10-26T12:55:57.371Z,16.52
2022-10-26T13:01:47.916Z,16.56
2022-10-26T13:07:20.821Z,16.70
2022-10-26T13:12:23.933Z,16.79
2022-10-26T13:17:29.242Z,16.86
2022-10-26T13:22:34.031Z,16.99
2022-10-26T13:27:45.002Z,17.03
2022-10-26T13:32:53.541Z,16.99
2022-10-26T13:37:58.479Z,16.97
2022-10-26T13:43:07.999Z,16.91
2022-10-26T13:48:17.166Z,16.95
2022-10-26T13:53:26.256Z,17.08
2022-10-26T13:58:34.786Z,17.27
2022-10-26T14:03:38.248Z,17.25
2022-10-26T14:08:44.489Z,17.18
2022-10-26T14:13:49.746Z,17.12
2022-10-26T14:18:52.614Z,17.08
2022-10-26T14:23:58.778Z,17.10
2022-10-26T14:29:02.804Z,17.23
2022-10-26T14:34:05.963Z,17.25
2022-10-26T14:39:19.143Z,17.40
2022-10-26T14:44:24.340Z,17.27
2022-10-26T14:49:29.315Z,17.11
2022-10-26T14:54:35.084Z,17.01
2022-10-26T14:59:37.983Z,16.74
2022-10-26T15:04:42.401Z,16.64
2022-10-26T15:09:48.575Z,16.44
2022-10-26T15:14:52.982Z,16.34
2022-10-26T15:19:57.820Z,16.33
2022-10-26T15:25:05.085Z,16.23
2022-10-26T15:30:19.028Z,16.27
2022-10-26T15:35:36.900Z,16.02
2022-10-26T15:40:44.476Z,15.96
2022-10-26T15:45:49.074Z,15.87
2022-10-26T15:50:52.040Z,15.75
2022-10-26T15:55:58.803Z,15.66
2022-10-26T16:01:01.869Z,15.49
2022-10-26T16:06:05.346Z,15.34
2022-10-26T16:11:09.632Z,15.44
2022-10-26T16:16:14.939Z,15.46
2022-10-26T16:21:19.740Z,15.29
2022-10-26T16:26:24.970Z,15.38
2022-10-26T16:31:28.951Z,15.28
2022-10-26T16:36:34.562Z,15.36
2022-10-26T16:41:41.488Z,15.36
2022-10-26T16:46:44.376Z,15.15
2022-10-26T16:51:47.224Z,15.03
2022-10-26T16:56:53.874Z,15.01
2022-10-26T17:01:57.036Z,14.96
2022-10-26T17:07:00.021Z,14.79
2022-10-26T17:12:04.530Z,14.93
2022-10-26T17:17:07.339Z,14.73
2022-10-26T17:22:12.611Z,14.90
2022-10-26T17:27:17.424Z,14.72
2022-10-26T17:32:22.268Z,14.87
2022-10-26T17:37:25.328Z,14.88
2022-10-26T17:42:38.368Z,14.99
2022-10-26T17:47:50.331Z,14.92
2022-10-26T17:53:07.906Z,15.06
2022-10-26T18:10:13.808Z,15.29
2022-10-26T18:15:30.934Z,15.27
2022-10-26T18:20:47.923Z,15.16
2022-10-26T18:27:05.864Z,15.04
2022-10-26T18:32:11.436Z,15.06
2022-10-26T18:37:14.356Z,15.01
2022-10-26T18:42:17.249Z,14.83
2022-10-26T18:47:21.719Z,14.69
2022-10-26T18:54:00.991Z,14.68
2022-10-26T18:59:14.832Z,14.59
2022-10-26T19:04:38.209Z,14.36
2022-10-26T19:10:15.383Z,14.16
2022-10-26T19:15:33.811Z,13.99
2022-10-26T19:20:42.722Z,13.95
2022-10-26T19:25:48.235Z,13.85
2022-10-26T19:30:51.538Z,13.71
2022-10-26T19:36:09.963Z,13.79
2022-10-26T19:41:52.652Z,14.05
2022-10-26T19:46:58.837Z,14.09
2022-10-26T19:52:05.311Z,13.99
2022-10-26T19:57:36.572Z,13.81
2022-10-26T20:02:57.290Z,13.77
2022-10-26T20:08:07.668Z,13.68
2022-10-26T20:13:42.239Z,13.58
2022-10-26T20:18:52.002Z,13.42
2022-10-26T20:24:09.902Z,13.48
2022-10-26T20:29:13.323Z,13.36
2022-10-26T20:34:18.548Z,13.32
2022-10-26T20:39:31.871Z,13.36
2022-10-26T20:44:48.774Z,13.27
2022-10-26T20:50:00.845Z,13.17
2022-10-26T20:55:14.961Z,13.35
2022-10-26T21:00:24.235Z,13.33
2022-10-26T21:05:30.232Z,13.20
2022-10-26T21:10:39.964Z,13.29
2022-10-26T21:15:48.049Z,13.34
2022-10-26T21:20:58.558Z,13.23
2022-10-26T21:26:03.542Z,13.17
2022-10-26T21:31:10.337Z,13.05
2022-10-26T21:36:14.480Z,13.15
2022-10-26T21:41:20.362Z,13.04
2022-10-26T21:46:49.197Z,13.00
2022-10-26T21:51:56.451Z,12.92
2022-10-26T21:57:08.308Z,12.82
2022-10-26T22:02:18.100Z,12.78
2022-10-26T22:07:26.519Z,12.75
2022-10-26T22:12:31.184Z,12.70
2022-10-26T22:17:42.067Z,12.78
2022-10-26T22:22:48.134Z,12.82
2022-10-26T22:27:52.641Z,12.92
2022-10-26T22:32:55.965Z,12.86
2022-10-26T22:37:59.114Z,12.81
2022-10-26T22:43:03.397Z,12.77
2022-10-26T22:53:11.797Z,12.65
2022-10-26T22:58:16.416Z,12.66
2022-10-26T23:03:34.468Z,12.64
2022-10-26T23:08:53.598Z,12.60
2022-10-26T23:14:02.296Z,12.54
2022-10-26T23:19:10.234Z,12.48
2022-10-26T23:24:19.526Z,12.47
2022-10-26T23:29:35.144Z,12.44
2022-10-26T23:34:51.949Z,12.48
2022-10-26T23:39:57.331Z,12.40
2022-10-26T23:45:02.728Z,12.38
2022-10-26T23:50:16.006Z,12.43
2022-10-26T23:55:24.720Z,12.43
